createdAt,value
2016-07-05T00:00:25.176Z,14.88
2016-07-05T00:01:25.428Z,14.81
2016-07-05T00:02:25.218Z,14.84
2016-07-05T00:03:25.209Z,14.8
2016-07-05T00:04:25.582Z,14.88
2016-07-05T00:05:25.224Z,14.8
2016-07-05T00:06:25.203Z,14.9
2016-07-05T00:07:25.576Z,14.78
2016-07-05T00:08:25.246Z,14.68
2016-07-05T00:09:25.234Z,14.81
2016-07-05T00:10:25.231Z,14.71
2016-07-05T00:11:25.262Z,14.72
2016-07-05T00:12:25.258Z,14.65
2016-07-05T00:13:25.287Z,14.67
2016-07-05T00:14:25.482Z,14.68
2016-07-05T00:15:25.236Z,14.68
2016-07-05T00:16:25.253Z,14.62
2016-07-05T00:17:25.228Z,14.6
2016-07-05T00:18:25.225Z,14.6
2016-07-05T00:19:25.319Z,14.57
2016-07-05T00:20:25.230Z,14.64
2016-07-05T00:21:25.252Z,14.57
2016-07-05T00:22:25.447Z,14.65
2016-07-05T00:23:25.224Z,14.5
2016-07-05T00:24:25.224Z,14.53
2016-07-05T00:25:25.235Z,14.57
2016-07-05T00:26:25.210Z,14.6
2016-07-05T00:27:25.216Z,14.5
2016-07-05T00:28:25.278Z,14.53
2016-07-05T00:29:25.367Z,14.54
2016-07-05T00:30:25.314Z,14.49
2016-07-05T00:31:25.448Z,14.54
2016-07-05T00:32:25.261Z,14.46
2016-07-05T00:33:25.230Z,14.57
2016-07-05T00:34:25.260Z,14.64
2016-07-05T00:35:25.237Z,14.49
2016-07-05T00:36:25.244Z,14.47
2016-07-05T00:37:25.526Z,14.53
2016-07-05T00:38:25.231Z,14.37
2016-07-05T00:39:25.247Z,14.54
2016-07-05T00:40:25.267Z,14.47
2016-07-05T00:41:25.216Z,14.47
2016-07-05T00:42:25.256Z,14.47
2016-07-05T00:43:25.219Z,14.46
2016-07-05T00:44:25.385Z,14.44
2016-07-05T00:45:25.233Z,14.44
2016-07-05T00:46:25.665Z,14.39
2016-07-05T00:47:25.226Z,14.27
2016-07-05T00:48:25.242Z,14.31
2016-07-05T00:49:25.236Z,14.34
2016-07-05T00:50:25.241Z,14.31
2016-07-05T00:51:25.269Z,14.34
2016-07-05T00:52:25.228Z,14.25
2016-07-05T00:53:25.229Z,14.28
2016-07-05T00:54:25.234Z,14.19
2016-07-05T00:55:25.251Z,14.27
2016-07-05T00:56:25.276Z,14.07
2016-07-05T00:57:25.266Z,14.24
2016-07-05T00:58:25.265Z,14.25
2016-07-05T00:59:25.355Z,14.29
2016-07-05T01:00:25.274Z,14.35
2016-07-05T01:01:25.265Z,14.29
2016-07-05T01:02:25.224Z,14.27
2016-07-05T01:03:25.228Z,14.35
2016-07-05T01:04:25.239Z,14.28
2016-07-05T01:05:25.252Z,14.32
2016-07-05T01:06:25.255Z,14.27
2016-07-05T01:07:25.526Z,14.27
2016-07-05T01:08:25.231Z,14.32
2016-07-05T01:09:25.241Z,14.31
2016-07-05T01:10:25.420Z,14.42
2016-07-05T01:11:25.243Z,14.44
2016-07-05T01:12:25.291Z,14.42
2016-07-05T01:13:25.512Z,14.47
2016-07-05T01:14:25.349Z,14.5
2016-07-05T01:15:25.227Z,14.44
2016-07-05T01:16:25.275Z,14.56
2016-07-05T01:17:25.296Z,14.65
2016-07-05T01:18:25.288Z,14.62
2016-07-05T01:19:25.436Z,14.54
2016-07-05T01:20:25.273Z,14.6
2016-07-05T01:21:25.260Z,14.71
2016-07-05T01:22:25.351Z,14.68
2016-07-05T01:23:25.261Z,14.67
2016-07-05T01:24:25.251Z,14.64
2016-07-05T01:25:25.456Z,14.67
2016-07-05T01:26:25.256Z,14.68
2016-07-05T01:27:25.264Z,14.74
2016-07-05T01:28:25.252Z,14.67
2016-07-05T01:29:25.500Z,14.86
2016-07-05T01:30:25.260Z,14.87
2016-07-05T01:31:25.253Z,14.9
2016-07-05T01:32:25.267Z,14.78
2016-07-05T01:33:25.282Z,14.86
2016-07-05T01:34:25.343Z,14.84
2016-07-05T01:35:25.315Z,14.81
2016-07-05T01:36:26.018Z,14.81
2016-07-05T01:37:25.290Z,14.91
2016-07-05T01:38:25.291Z,14.93
2016-07-05T01:39:25.260Z,14.78
2016-07-05T01:40:25.324Z,14.81
2016-07-05T01:41:25.273Z,14.84
2016-07-05T01:42:25.265Z,14.9
2016-07-05T01:43:25.336Z,14.88
2016-07-05T01:44:25.350Z,14.87
2016-07-05T01:45:25.283Z,14.9
2016-07-05T01:46:25.350Z,14.75
2016-07-05T01:47:25.315Z,14.86
2016-07-05T01:48:25.291Z,14.75
2016-07-05T01:49:25.318Z,14.8
2016-07-05T01:50:25.305Z,14.81
2016-07-05T01:51:25.298Z,14.83
2016-07-05T01:52:25.287Z,14.8
2016-07-05T01:53:25.290Z,14.75
2016-07-05T01:54:25.288Z,14.78
2016-07-05T01:55:25.294Z,14.8
2016-07-05T01:56:25.290Z,14.83
2016-07-05T01:57:25.306Z,14.74
2016-07-05T01:58:25.295Z,14.75
2016-07-05T01:59:25.444Z,14.75
2016-07-05T02:00:25.309Z,14.69
2016-07-05T02:01:25.299Z,14.62
2016-07-05T02:02:25.602Z,14.65
2016-07-05T02:03:25.595Z,14.62
2016-07-05T02:04:25.617Z,14.64
2016-07-05T02:05:25.649Z,14.56
2016-07-05T02:06:25.541Z,14.65
2016-07-05T02:07:25.556Z,14.56
2016-07-05T02:08:25.573Z,14.54
2016-07-05T02:09:25.291Z,14.72
2016-07-05T02:10:25.329Z,14.61
2016-07-05T02:11:25.648Z,14.64
2016-07-05T02:12:25.290Z,14.61
2016-07-05T02:13:25.321Z,14.62
2016-07-05T02:14:25.423Z,14.65
2016-07-05T02:15:25.299Z,14.57
2016-07-05T02:16:25.286Z,14.61
2016-07-05T02:17:25.347Z,14.62
2016-07-05T02:18:25.317Z,14.61
2016-07-05T02:19:25.349Z,14.6
2016-07-05T02:20:25.329Z,14.52
2016-07-05T02:21:25.336Z,14.61
2016-07-05T02:22:25.371Z,14.64
2016-07-05T02:23:25.303Z,14.64
2016-07-05T02:24:25.370Z,14.6
2016-07-05T02:25:25.363Z,14.67
2016-07-05T02:26:25.341Z,14.67
2016-07-05T02:27:25.347Z,14.67
2016-07-05T02:28:25.345Z,14.69
2016-07-05T02:29:25.475Z,14.81
2016-07-05T02:30:25.292Z,14.87
2016-07-05T02:31:25.290Z,14.8
2016-07-05T02:32:25.316Z,14.75
2016-07-05T02:33:25.319Z,14.9
2016-07-05T02:34:25.355Z,14.91
2016-07-05T02:35:25.324Z,14.93
2016-07-05T02:36:25.330Z,14.87
2016-07-05T02:37:25.322Z,14.9
2016-07-05T02:38:25.326Z,14.94
2016-07-05T02:39:25.318Z,15.03
2016-07-05T02:40:25.323Z,15.06
2016-07-05T02:41:25.331Z,15.05
2016-07-05T02:42:25.309Z,15.06
2016-07-05T02:43:25.351Z,15.05
2016-07-05T02:44:25.600Z,15.15
2016-07-05T02:45:25.323Z,15.15
2016-07-05T02:46:25.326Z,15.2
2016-07-05T02:47:25.339Z,15.24
2016-07-05T02:48:25.343Z,15.3
2016-07-05T02:49:25.320Z,15.24
2016-07-05T02:50:25.326Z,15.33
2016-07-05T02:51:25.363Z,15.28
2016-07-05T02:52:25.346Z,15.33
2016-07-05T02:53:25.333Z,15.28
2016-07-05T02:54:25.340Z,15.38
2016-07-05T02:55:25.357Z,15.33
2016-07-05T02:56:25.334Z,15.42
2016-07-05T02:57:25.328Z,15.46
2016-07-05T02:58:25.314Z,15.41
2016-07-05T02:59:25.892Z,15.42
2016-07-05T03:00:25.302Z,15.46
2016-07-05T03:01:25.340Z,15.46
2016-07-05T03:02:25.318Z,15.54
2016-07-05T03:03:25.334Z,15.45
2016-07-05T03:04:25.354Z,15.42
2016-07-05T03:05:25.389Z,15.61
2016-07-05T03:06:25.327Z,15.6
2016-07-05T03:07:25.354Z,15.56
2016-07-05T03:08:25.358Z,15.66
2016-07-05T03:09:25.350Z,15.66
2016-07-05T03:10:25.352Z,15.61
2016-07-05T03:11:25.359Z,15.67
2016-07-05T03:12:25.360Z,15.63
2016-07-05T03:13:25.368Z,15.78
2016-07-05T03:14:25.416Z,15.64
2016-07-05T03:15:25.362Z,15.74
2016-07-05T03:16:25.417Z,15.72
2016-07-05T03:17:25.386Z,15.75
2016-07-05T03:18:25.373Z,15.75
2016-07-05T03:19:25.393Z,15.68
2016-07-05T03:20:25.390Z,15.75
2016-07-05T03:21:25.381Z,15.82
2016-07-05T03:22:25.374Z,15.78
2016-07-05T03:23:25.352Z,15.72
2016-07-05T03:24:25.395Z,15.82
2016-07-05T03:25:25.415Z,15.81
2016-07-05T03:26:25.385Z,15.96
2016-07-05T03:27:25.384Z,15.79
2016-07-05T03:28:25.359Z,15.89
2016-07-05T03:29:25.395Z,15.89
2016-07-05T03:30:25.386Z,15.89
2016-07-05T03:31:25.392Z,15.84
2016-07-05T03:32:25.416Z,15.81
2016-07-05T03:33:25.384Z,15.88
2016-07-05T03:34:25.387Z,15.92
2016-07-05T03:35:25.362Z,15.94
2016-07-05T03:36:25.372Z,15.92
2016-07-05T03:37:25.387Z,15.89
2016-07-05T03:38:25.431Z,15.88
2016-07-05T03:39:25.381Z,15.99
2016-07-05T03:40:25.392Z,15.94
2016-07-05T03:41:25.380Z,15.89
2016-07-05T03:42:25.355Z,15.92
2016-07-05T03:43:25.389Z,16
2016-07-05T03:44:26.253Z,16.04
2016-07-05T03:45:25.364Z,15.99
2016-07-05T03:46:25.385Z,16.11
2016-07-05T03:47:25.344Z,16.03
2016-07-05T03:48:25.412Z,16.06
2016-07-05T03:49:25.395Z,16.06
2016-07-05T03:50:25.381Z,16.12
2016-07-05T03:51:25.376Z,16.14
2016-07-05T03:52:25.394Z,16.03
2016-07-05T03:53:25.407Z,16.04
2016-07-05T03:54:25.414Z,16.03
2016-07-05T03:55:25.807Z,16.04
2016-07-05T03:56:25.395Z,16.25
2016-07-05T03:57:25.418Z,16.11
2016-07-05T03:58:25.372Z,16.2
2016-07-05T03:59:25.445Z,16.18
2016-07-05T04:00:25.422Z,16.18
2016-07-05T04:01:25.642Z,16.33
2016-07-05T04:02:25.419Z,16.3
2016-07-05T04:03:25.398Z,16.33
2016-07-05T04:04:25.423Z,16.31
2016-07-05T04:05:25.450Z,16.23
2016-07-05T04:06:25.439Z,16.33
2016-07-05T04:07:25.415Z,16.41
2016-07-05T04:08:25.454Z,16.4
2016-07-05T04:09:25.428Z,16.45
2016-07-05T04:10:25.428Z,16.48
2016-07-05T04:11:25.396Z,16.58
2016-07-05T04:12:25.420Z,16.42
2016-07-05T04:13:25.404Z,16.56
2016-07-05T04:14:25.422Z,16.58
2016-07-05T04:15:25.409Z,16.63
2016-07-05T04:16:25.418Z,16.62
2016-07-05T04:17:25.392Z,16.63
2016-07-05T04:18:25.433Z,16.68
2016-07-05T04:19:25.414Z,16.67
2016-07-05T04:20:25.403Z,16.73
2016-07-05T04:21:25.393Z,16.8
2016-07-05T04:22:25.431Z,16.74
2016-07-05T04:23:25.428Z,16.92
2016-07-05T04:24:25.463Z,16.77
2016-07-05T04:25:25.473Z,16.88
2016-07-05T04:26:25.432Z,16.89
2016-07-05T04:27:25.447Z,16.89
2016-07-05T04:28:25.428Z,17.03
2016-07-05T04:29:25.427Z,17
2016-07-05T04:30:25.432Z,16.99
2016-07-05T04:31:25.439Z,16.9
2016-07-05T04:32:25.424Z,16.99
2016-07-05T04:33:25.424Z,17.1
2016-07-05T04:34:25.459Z,16.95
2016-07-05T04:35:25.439Z,17.11
2016-07-05T04:36:25.473Z,17.2
2016-07-05T04:37:25.459Z,17.17
2016-07-05T04:38:25.426Z,17.26
2016-07-05T04:39:25.426Z,17.23
2016-07-05T04:40:25.422Z,17.29
2016-07-05T04:41:25.428Z,17.3
2016-07-05T04:42:25.425Z,17.29
2016-07-05T04:43:25.515Z,17.36
2016-07-05T04:44:25.455Z,17.32
2016-07-05T04:45:25.424Z,17.28
2016-07-05T04:46:25.463Z,17.4
2016-07-05T04:47:25.460Z,17.38
2016-07-05T04:48:25.489Z,17.46
2016-07-05T04:49:25.476Z,17.47
2016-07-05T04:50:25.415Z,17.44
2016-07-05T04:51:25.453Z,17.47
2016-07-05T04:52:25.450Z,17.47
2016-07-05T04:53:25.422Z,17.46
2016-07-05T04:54:25.433Z,17.47
2016-07-05T04:55:25.435Z,17.5
2016-07-05T04:56:25.452Z,17.53
2016-07-05T04:57:25.452Z,17.43
2016-07-05T04:58:25.456Z,17.51
2016-07-05T04:59:25.481Z,17.4
2016-07-05T05:00:25.440Z,17.54
2016-07-05T05:01:25.455Z,17.55
2016-07-05T05:02:25.435Z,17.64
2016-07-05T05:03:25.458Z,17.78
2016-07-05T05:04:25.459Z,17.81
2016-07-05T05:05:25.484Z,17.91
2016-07-05T05:06:25.547Z,17.89
2016-07-05T05:07:25.486Z,17.91
2016-07-05T05:08:25.447Z,17.89
2016-07-05T05:09:25.457Z,17.92
2016-07-05T05:10:25.511Z,17.95
2016-07-05T05:11:25.449Z,17.91
2016-07-05T05:12:25.793Z,17.89
2016-07-05T05:13:25.495Z,18.04
2016-07-05T05:14:25.488Z,18
2016-07-05T05:15:25.475Z,17.97
2016-07-05T05:16:25.514Z,18.07
2016-07-05T05:17:25.504Z,18.15
2016-07-05T05:18:25.473Z,18.07
2016-07-05T05:19:26.226Z,18.15
2016-07-05T05:20:25.536Z,18.28
2016-07-05T05:21:25.463Z,18.31
2016-07-05T05:22:25.459Z,18.25
2016-07-05T05:23:25.450Z,18.4
2016-07-05T05:24:25.471Z,18.37
2016-07-05T05:25:25.505Z,18.4
2016-07-05T05:26:25.582Z,18.4
2016-07-05T05:27:25.518Z,18.46
2016-07-05T05:28:25.549Z,18.43
2016-07-05T05:29:25.571Z,18.33
2016-07-05T05:30:26.290Z,18.4
2016-07-05T05:31:25.493Z,18.52
2016-07-05T05:32:25.610Z,18.5
2016-07-05T05:33:25.618Z,18.42
2016-07-05T05:34:25.584Z,18.42
2016-07-05T05:35:25.606Z,18.33
2016-07-05T05:36:26.473Z,18.42
2016-07-05T05:37:25.725Z,18.39
2016-07-05T05:38:25.558Z,18.29
2016-07-05T05:39:25.462Z,18.24
2016-07-05T05:40:25.544Z,18.24
2016-07-05T05:41:25.614Z,18.19
2016-07-05T05:42:25.517Z,18.31
2016-07-05T05:43:25.481Z,18.39
2016-07-05T05:44:25.528Z,18.42
2016-07-05T05:45:25.516Z,18.33
2016-07-05T05:46:25.489Z,18.37
2016-07-05T05:47:25.490Z,18.31
2016-07-05T05:48:25.452Z,18.42
2016-07-05T05:49:25.465Z,18.4
2016-07-05T05:50:25.526Z,18.43
2016-07-05T05:51:25.461Z,18.5
2016-07-05T05:52:25.490Z,18.55
2016-07-05T05:53:25.529Z,18.49
2016-07-05T05:54:25.521Z,18.57
2016-07-05T05:55:25.518Z,18.57
2016-07-05T05:56:25.520Z,18.59
2016-07-05T05:57:25.483Z,18.49
2016-07-05T05:58:25.504Z,18.73
2016-07-05T05:59:25.577Z,18.73
2016-07-05T06:00:25.525Z,18.68
2016-07-05T06:01:25.499Z,18.83
2016-07-05T06:02:25.518Z,18.82
2016-07-05T06:03:25.525Z,18.92
2016-07-05T06:04:25.531Z,18.87
2016-07-05T06:05:25.536Z,18.94
2016-07-05T06:06:25.573Z,19.05
2016-07-05T06:07:25.600Z,19.14
2016-07-05T06:08:25.518Z,19.14
2016-07-05T06:09:25.643Z,19.08
2016-07-05T06:10:25.551Z,19.15
2016-07-05T06:11:25.519Z,19.24
2016-07-05T06:12:25.543Z,19.32
2016-07-05T06:13:25.592Z,19.31
2016-07-05T06:14:25.486Z,19.39
2016-07-05T06:15:25.612Z,19.5
2016-07-05T06:16:25.615Z,19.47
2016-07-05T06:17:25.564Z,19.51
2016-07-05T06:18:25.728Z,19.68
2016-07-05T06:19:25.547Z,19.63
2016-07-05T06:20:25.613Z,19.76
2016-07-05T06:21:25.511Z,19.76
2016-07-05T06:22:25.579Z,19.86
2016-07-05T06:23:25.548Z,19.95
2016-07-05T06:24:25.581Z,20
2016-07-05T06:25:26.233Z,20.09
2016-07-05T06:26:25.520Z,20.33
2016-07-05T06:27:25.588Z,20.43
2016-07-05T06:28:25.518Z,20.81
2016-07-05T06:29:25.539Z,21.24
2016-07-05T06:30:25.547Z,21.75
2016-07-05T06:31:25.644Z,22.16
2016-07-05T06:32:25.817Z,22.46
2016-07-05T06:33:25.553Z,22.86
2016-07-05T06:34:25.561Z,23.46
2016-07-05T06:35:25.554Z,24.02
2016-07-05T06:36:25.601Z,23.09
2016-07-05T06:37:25.565Z,23.61
2016-07-05T06:38:25.597Z,23.89
2016-07-05T06:39:25.516Z,24.39
2016-07-05T06:40:25.598Z,24.87
2016-07-05T06:41:25.543Z,25.05
2016-07-05T06:42:25.536Z,25.35
2016-07-05T06:43:25.543Z,25.5
2016-07-05T06:44:25.581Z,25.74
2016-07-05T06:45:25.544Z,25.93
2016-07-05T06:46:25.596Z,26.11
2016-07-05T06:47:25.860Z,26.46
2016-07-05T06:48:25.629Z,26.61
2016-07-05T06:49:25.545Z,26.89
2016-07-05T06:50:25.636Z,27.14
2016-07-05T06:51:25.628Z,27.23
2016-07-05T06:52:25.734Z,27.33
2016-07-05T06:53:25.583Z,27.51
2016-07-05T06:54:25.582Z,27.53
2016-07-05T06:55:25.624Z,27.67
2016-07-05T06:56:25.557Z,27.77
2016-07-05T06:57:25.600Z,27.89
2016-07-05T06:58:25.752Z,28.01
2016-07-05T06:59:25.625Z,28.04
2016-07-05T07:00:25.582Z,28.11
2016-07-05T07:01:26.276Z,28.48
2016-07-05T07:02:25.567Z,28.51
2016-07-05T07:03:25.639Z,28.54
2016-07-05T07:04:25.536Z,28.63
2016-07-05T07:05:25.580Z,28.62
2016-07-05T07:06:26.584Z,28.65
2016-07-05T07:07:25.642Z,28.72
2016-07-05T07:08:25.574Z,28.81
2016-07-05T07:09:25.618Z,29.15
2016-07-05T07:10:25.527Z,29.28
2016-07-05T07:11:25.881Z,29.22
2016-07-05T07:12:25.564Z,28.62
2016-07-05T07:13:25.610Z,28.88
2016-07-05T07:14:25.644Z,29.01
2016-07-05T07:15:25.589Z,29.1
2016-07-05T07:16:25.591Z,29.19
2016-07-05T07:17:25.580Z,29.15
2016-07-05T07:18:25.683Z,29.25
2016-07-05T07:19:25.594Z,29.31
2016-07-05T07:20:25.589Z,29.11
2016-07-05T07:21:25.604Z,29.22
2016-07-05T07:22:25.582Z,29.19
2016-07-05T07:23:25.681Z,28.91
2016-07-05T07:24:25.577Z,28.85
2016-07-05T07:25:25.587Z,28.69
2016-07-05T07:26:25.609Z,28.35
2016-07-05T07:27:25.600Z,27.91
2016-07-05T07:28:25.620Z,27.5
2016-07-05T07:29:25.606Z,27.76
2016-07-05T07:30:25.637Z,27.67
2016-07-05T07:31:25.600Z,28.14
2016-07-05T07:32:25.606Z,28.4
2016-07-05T07:33:25.639Z,28.59
2016-07-05T07:34:25.666Z,28.81
2016-07-05T07:35:25.603Z,28.7
2016-07-05T07:36:25.610Z,28.63
2016-07-05T07:37:25.600Z,28.77
2016-07-05T07:38:25.640Z,28.91
2016-07-05T07:39:26.158Z,28.85
2016-07-05T07:40:25.653Z,28.56
2016-07-05T07:41:25.848Z,28.01
2016-07-05T07:42:25.759Z,27.62
2016-07-05T07:43:25.715Z,27.21
2016-07-05T07:44:25.608Z,26.81
2016-07-05T07:45:25.669Z,26.24
2016-07-05T07:46:25.645Z,26.04
2016-07-05T07:47:25.653Z,25.59
2016-07-05T07:48:25.738Z,25.35
2016-07-05T07:49:25.697Z,25.31
2016-07-05T07:50:25.773Z,25.05
2016-07-05T07:51:25.765Z,24.75
2016-07-05T07:52:25.653Z,24.67
2016-07-05T07:53:25.641Z,24.56
2016-07-05T07:54:25.684Z,24.42
2016-07-05T07:55:25.679Z,24.35
2016-07-05T07:56:25.744Z,24.04
2016-07-05T07:57:25.773Z,23.92
2016-07-05T07:58:25.709Z,23.65
2016-07-05T07:59:25.704Z,23.76
2016-07-05T08:00:25.794Z,23.72
2016-07-05T08:01:25.849Z,23.71
2016-07-05T08:02:26.458Z,23.68
2016-07-05T08:03:25.660Z,23.6
2016-07-05T08:04:25.702Z,23.46
2016-07-05T08:05:25.678Z,23.53
2016-07-05T08:06:25.704Z,23.65
2016-07-05T08:07:25.712Z,23.55
2016-07-05T08:08:25.676Z,23.47
2016-07-05T08:09:25.659Z,23.39
2016-07-05T08:10:25.661Z,23.08
2016-07-05T08:11:25.771Z,23.24
2016-07-05T08:12:25.747Z,23.02
2016-07-05T08:13:25.691Z,22.96
2016-07-05T08:14:25.714Z,22.77
2016-07-05T08:15:25.676Z,22.9
2016-07-05T08:16:25.741Z,22.68
2016-07-05T08:17:25.707Z,22.68
2016-07-05T08:18:25.688Z,22.47
2016-07-05T08:19:25.689Z,22.46
2016-07-05T08:20:25.700Z,22.41
2016-07-05T08:21:25.764Z,22.49
2016-07-05T08:22:25.686Z,22.44
2016-07-05T08:23:25.732Z,22.39
2016-07-05T08:24:27.055Z,22.49
2016-07-05T08:25:26.373Z,22.38
2016-07-05T08:26:25.828Z,22.52
2016-07-05T08:27:25.673Z,22.59
2016-07-05T08:28:25.690Z,22.46
2016-07-05T08:29:26.048Z,22.59
2016-07-05T08:30:26.012Z,22.86
2016-07-05T08:31:25.774Z,22.87
2016-07-05T08:32:25.843Z,23.19
2016-07-05T08:33:25.732Z,23.26
2016-07-05T08:34:26.002Z,23.55
2016-07-05T08:35:25.907Z,23.4
2016-07-05T08:36:25.695Z,23.62
2016-07-05T08:37:25.748Z,23.6
2016-07-05T08:38:25.926Z,23.53
2016-07-05T08:39:25.715Z,23.55
2016-07-05T08:40:26.417Z,23.22
2016-07-05T08:41:25.887Z,23.22
2016-07-05T08:42:25.708Z,22.86
2016-07-05T08:43:25.741Z,22.8
2016-07-05T08:44:25.776Z,22.65
2016-07-05T08:45:25.702Z,22.47
2016-07-05T08:46:25.788Z,22.35
2016-07-05T08:47:25.743Z,22.23
2016-07-05T08:48:25.771Z,22.22
2016-07-05T08:49:25.818Z,22.07
2016-07-05T08:50:25.857Z,21.87
2016-07-05T08:51:25.768Z,21.99
2016-07-05T08:52:25.727Z,21.81
2016-07-05T08:53:25.807Z,21.9
2016-07-05T08:54:25.904Z,21.79
2016-07-05T08:55:25.773Z,21.83
2016-07-05T08:56:25.712Z,21.78
2016-07-05T08:57:25.701Z,21.78
2016-07-05T08:58:26.700Z,21.82
2016-07-05T08:59:25.706Z,21.83
2016-07-05T09:00:25.752Z,21.92
2016-07-05T09:01:25.836Z,22.01
2016-07-05T09:02:25.722Z,22.17
2016-07-05T09:03:25.919Z,22.22
2016-07-05T09:04:25.783Z,22.5
2016-07-05T09:05:26.739Z,22.68
2016-07-05T09:06:25.791Z,22.59
2016-07-05T09:07:25.721Z,22.56
2016-07-05T09:08:25.760Z,22.6
2016-07-05T09:09:25.721Z,22.72
2016-07-05T09:10:25.731Z,22.89
2016-07-05T09:11:25.768Z,22.86
2016-07-05T09:12:25.723Z,23.05
2016-07-05T09:13:25.786Z,23.31
2016-07-05T09:14:25.746Z,23.12
2016-07-05T09:15:25.793Z,23.23
2016-07-05T09:16:25.811Z,23.19
2016-07-05T09:17:25.776Z,23.31
2016-07-05T09:18:25.767Z,23.23
2016-07-05T09:19:25.859Z,23.38
2016-07-05T09:20:25.722Z,23.42
2016-07-05T09:21:25.802Z,23.61
2016-07-05T09:22:25.762Z,23.34
2016-07-05T09:23:25.756Z,23.47
2016-07-05T09:24:25.871Z,23.4
2016-07-05T09:25:25.743Z,23.67
2016-07-05T09:26:25.746Z,23.52
2016-07-05T09:27:25.862Z,23.77
2016-07-05T09:28:25.919Z,23.65
2016-07-05T09:29:26.417Z,23.46
2016-07-05T09:30:25.738Z,23.47
2016-07-05T09:31:25.802Z,22.99
2016-07-05T09:32:25.803Z,23.23
2016-07-05T09:33:25.816Z,22.93
2016-07-05T09:34:25.730Z,22.92
2016-07-05T09:35:25.829Z,22.93
2016-07-05T09:36:25.811Z,23.08
2016-07-05T09:37:25.870Z,22.83
2016-07-05T09:38:25.786Z,22.94
2016-07-05T09:39:25.882Z,22.94
2016-07-05T09:40:25.757Z,22.82
2016-07-05T09:41:25.768Z,22.77
2016-07-05T09:42:25.748Z,22.71
2016-07-05T09:43:25.749Z,22.75
2016-07-05T09:44:25.734Z,22.86
2016-07-05T09:45:25.739Z,22.97
2016-07-05T09:46:25.734Z,23.31
2016-07-05T09:47:25.799Z,23.24
2016-07-05T09:48:25.773Z,23.39
2016-07-05T09:49:25.826Z,23.58
2016-07-05T09:50:26.099Z,23.46
2016-07-05T09:51:25.811Z,23.26
2016-07-05T09:52:25.769Z,23.29
2016-07-05T09:53:25.781Z,23.42
2016-07-05T09:54:25.736Z,23.42
2016-07-05T09:55:25.750Z,23.39
2016-07-05T09:56:26.485Z,23.42
2016-07-05T09:57:25.786Z,23.23
2016-07-05T09:58:25.900Z,23.04
2016-07-05T09:59:25.783Z,22.92
2016-07-05T10:00:25.811Z,22.84
2016-07-05T10:01:25.811Z,22.69
2016-07-05T10:02:25.909Z,22.72
2016-07-05T10:03:26.413Z,22.59
2016-07-05T10:04:26.431Z,22.47
2016-07-05T10:05:25.794Z,22.47
2016-07-05T10:06:25.862Z,22.44
2016-07-05T10:07:25.817Z,22.54
2016-07-05T10:08:25.828Z,22.83
2016-07-05T10:09:25.977Z,22.64
2016-07-05T10:10:25.890Z,22.37
2016-07-05T10:11:25.764Z,22.31
2016-07-05T10:12:25.793Z,22.25
2016-07-05T10:13:25.826Z,22.07
2016-07-05T10:14:25.837Z,22.12
2016-07-05T10:15:25.989Z,22.35
2016-07-05T10:16:25.796Z,22.34
2016-07-05T10:17:25.904Z,22.5
2016-07-05T10:18:25.859Z,22.52
2016-07-05T10:19:25.800Z,22.47
2016-07-05T10:20:25.999Z,22.32
2016-07-05T10:21:25.789Z,22.32
2016-07-05T10:22:25.887Z,22.22
2016-07-05T10:23:25.800Z,22.32
2016-07-05T10:24:25.834Z,22.35
2016-07-05T10:25:25.831Z,22.56
2016-07-05T10:26:25.828Z,22.65
2016-07-05T10:27:25.805Z,22.78
2016-07-05T10:28:25.933Z,22.72
2016-07-05T10:29:25.808Z,22.78
2016-07-05T10:30:25.872Z,22.93
2016-07-05T10:31:25.827Z,23.17
2016-07-05T10:32:25.825Z,22.86
2016-07-05T10:33:25.921Z,23.08
2016-07-05T10:34:25.810Z,23.09
2016-07-05T10:35:25.947Z,23.14
2016-07-05T10:36:25.959Z,23.01
2016-07-05T10:37:25.843Z,22.92
2016-07-05T10:38:25.837Z,22.71
2016-07-05T10:39:26.058Z,22.75
2016-07-05T10:40:25.944Z,22.54
2016-07-05T10:41:26.472Z,22.29
2016-07-05T10:42:25.876Z,22.38
2016-07-05T10:43:25.882Z,22.13
2016-07-05T10:44:25.845Z,22.06
2016-07-05T10:45:25.830Z,22.1
2016-07-05T10:46:25.865Z,22.02
2016-07-05T10:47:25.852Z,21.85
2016-07-05T10:48:25.850Z,21.67
2016-07-05T10:49:25.792Z,21.6
2016-07-05T10:50:25.881Z,21.59
2016-07-05T10:51:25.798Z,21.57
2016-07-05T10:52:25.862Z,21.54
2016-07-05T10:53:25.840Z,21.51
2016-07-05T10:54:25.838Z,21.56
2016-07-05T10:55:25.826Z,21.5
2016-07-05T10:56:25.839Z,21.59
2016-07-05T10:57:25.834Z,21.61
2016-07-05T10:58:25.903Z,21.81
2016-07-05T10:59:25.849Z,21.95
2016-07-05T11:00:25.823Z,22.14
2016-07-05T11:01:25.800Z,22.38
2016-07-05T11:02:25.812Z,22.64
2016-07-05T11:03:25.832Z,22.9
2016-07-05T11:04:25.832Z,23.12
2016-07-05T11:05:25.889Z,22.84
2016-07-05T11:06:25.909Z,22.99
2016-07-05T11:07:25.930Z,23.04
2016-07-05T11:08:25.905Z,22.93
2016-07-05T11:09:25.828Z,23.02
2016-07-05T11:10:26.462Z,22.84
2016-07-05T11:11:26.893Z,22.71
2016-07-05T11:12:25.894Z,22.49
2016-07-05T11:13:25.905Z,22.46
2016-07-05T11:14:25.892Z,22.37
2016-07-05T11:15:25.907Z,22.34
2016-07-05T11:16:25.878Z,22.31
2016-07-05T11:17:26.016Z,22.32
2016-07-05T11:18:25.891Z,22.13
2016-07-05T11:19:25.888Z,21.92
2016-07-05T11:20:25.869Z,21.74
2016-07-05T11:21:25.907Z,21.94
2016-07-05T11:22:25.947Z,21.78
2016-07-05T11:23:25.894Z,21.56
2016-07-05T11:24:25.911Z,21.59
2016-07-05T11:25:25.906Z,21.48
2016-07-05T11:26:25.902Z,21.5
2016-07-05T11:27:25.901Z,21.46
2016-07-05T11:28:25.895Z,21.38
2016-07-05T11:29:25.914Z,21.35
2016-07-05T11:30:25.942Z,21.38
2016-07-05T11:31:25.959Z,21.29
2016-07-05T11:32:25.894Z,21.09
2016-07-05T11:33:25.944Z,21.2
2016-07-05T11:34:25.867Z,21.13
2016-07-05T11:35:25.905Z,21.09
2016-07-05T11:36:25.898Z,21.19
2016-07-05T11:37:25.841Z,21.09
2016-07-05T11:38:25.863Z,20.95
2016-07-05T11:39:27.228Z,21.05
2016-07-05T11:40:25.860Z,20.95
2016-07-05T11:41:25.855Z,20.95
2016-07-05T11:42:25.843Z,20.79
2016-07-05T11:43:25.877Z,20.79
2016-07-05T11:44:25.859Z,20.72
2016-07-05T11:45:25.881Z,20.64
2016-07-05T11:46:25.865Z,20.59
2016-07-05T11:47:25.897Z,20.62
2016-07-05T11:48:25.879Z,20.58
2016-07-05T11:49:25.864Z,20.66
2016-07-05T11:50:25.870Z,20.65
2016-07-05T11:51:26.143Z,20.41
2016-07-05T11:52:25.914Z,20.39
2016-07-05T11:53:25.935Z,20.34
2016-07-05T11:54:25.898Z,20.39
2016-07-05T11:55:25.960Z,20.47
2016-07-05T11:56:25.950Z,20.49
2016-07-05T11:57:25.894Z,20.58
2016-07-05T11:58:25.923Z,20.68
2016-07-05T11:59:25.920Z,20.62
2016-07-05T12:00:25.941Z,20.76
2016-07-05T12:01:25.903Z,20.81
2016-07-05T12:02:26.582Z,20.95
2016-07-05T12:03:25.931Z,21.05
2016-07-05T12:04:25.898Z,21.36
2016-07-05T12:05:25.902Z,21.5
2016-07-05T12:06:26.014Z,21.74
2016-07-05T12:07:25.918Z,21.79
2016-07-05T12:08:25.869Z,21.76
2016-07-05T12:09:25.938Z,21.98
2016-07-05T12:10:25.848Z,22.04
2016-07-05T12:11:25.959Z,22.07
2016-07-05T12:12:25.951Z,22.13
2016-07-05T12:13:25.894Z,22.19
2016-07-05T12:14:25.921Z,22.14
2016-07-05T12:15:25.907Z,22.02
2016-07-05T12:16:25.892Z,22.09
2016-07-05T12:17:25.923Z,22.01
2016-07-05T12:18:25.918Z,21.97
2016-07-05T12:19:25.866Z,22.06
2016-07-05T12:20:25.956Z,22.09
2016-07-05T12:21:26.558Z,22.14
2016-07-05T12:22:25.953Z,22.2
2016-07-05T12:23:25.953Z,22.09
2016-07-05T12:24:25.955Z,22.07
2016-07-05T12:25:25.897Z,22.07
2016-07-05T12:26:25.908Z,22.12
2016-07-05T12:27:25.983Z,22.13
2016-07-05T12:28:25.902Z,22.27
2016-07-05T12:29:25.957Z,22.19
2016-07-05T12:30:25.959Z,22.29
2016-07-05T12:31:26.042Z,22.59
2016-07-05T12:32:25.912Z,22.68
2016-07-05T12:33:25.926Z,22.64
2016-07-05T12:34:25.984Z,22.78
2016-07-05T12:35:26.063Z,22.86
2016-07-05T12:36:25.904Z,22.96
2016-07-05T12:37:25.950Z,23.15
2016-07-05T12:38:25.988Z,23.22
2016-07-05T12:39:25.904Z,23.22
2016-07-05T12:40:25.927Z,23.39
2016-07-05T12:41:25.970Z,23.47
2016-07-05T12:42:26.945Z,23.43
2016-07-05T12:43:25.936Z,23.62
2016-07-05T12:44:25.978Z,23.4
2016-07-05T12:45:26.003Z,23.67
2016-07-05T12:46:25.909Z,23.43
2016-07-05T12:47:25.940Z,23.52
2016-07-05T12:48:26.105Z,23.43
2016-07-05T12:49:26.546Z,23.42
2016-07-05T12:50:25.971Z,23.47
2016-07-05T12:51:26.014Z,23.05
2016-07-05T12:52:25.986Z,23.19
2016-07-05T12:53:25.939Z,23.14
2016-07-05T12:54:25.988Z,23.17
2016-07-05T12:55:26.004Z,23.09